Time;durP1;ratioP1;P1;durP2;ratioP2;P2;SDS_P1;SDS_P2;PMS_P1;PMS_P2;Temp;Humidity;BMP_temperature;BMP_pressure;BME280_temperature;BME280_humidity;BME280_pressure;Samples;Min_cycle;Max_cycle;Signal;HPM_P1;HPM_P2
2022/08/28 00:00:18;;;;;;;3.70;1.53;;;24.00;65.00;;;;;;5085903;28;20178;-93
2022/08/28 00:02:47;;;;;;;2.77;1.80;;;24.00;65.20;;;;;;5058785;28;20238;-92
2022/08/28 00:05:31;;;;;;;3.63;1.47;;;24.00;65.00;;;;;;5044036;28;20179;-91
2022/08/28 00:08:13;;;;;;;3.93;1.80;;;24.00;65.30;;;;;;5041344;28;20334;-92
2022/08/28 00:10:53;;;;;;;3.13;1.57;;;24.00;65.00;;;;;;5038711;28;20171;-92
2022/08/28 00:16:48;;;;;;;2.97;1.70;;;24.00;64.70;;;;;;4980244;28;20337;-91
2022/08/28 00:19:23;;;;;;;3.47;1.63;;;23.90;64.90;;;;;;4966104;28;20174;-91
2022/08/28 00:21:50;;;;;;;2.27;1.40;;;23.90;65.10;;;;;;5035402;28;20319;-91
2022/08/28 00:24:17;;;;;;;3.80;1.70;;;23.80;65.20;;;;;;5048210;28;20817;-91
2022/08/28 00:30:22;;;;;;;5.83;1.67;;;23.80;65.60;;;;;;5053554;28;20175;-92
2022/08/28 00:32:50;;;;;;;3.80;1.83;;;23.80;65.80;;;;;;5039857;28;20179;-92
2022/08/28 00:35:17;;;;;;;3.43;1.70;;;23.80;65.30;;;;;;5083568;28;20207;-92
2022/08/28 00:37:45;;;;;;;3.60;1.90;;;23.80;65.90;;;;;;5053187;28;20191;-93
2022/08/28 00:40:28;;;;;;;4.70;1.93;;;23.80;65.60;;;;;;5078239;28;20510;-93
2022/08/28 00:42:55;;;;;;;4.63;2.13;;;23.80;65.70;;;;;;5071306;28;20681;-93
2022/08/28 00:45:23;;;;;;;4.83;2.00;;;23.80;65.50;;;;;;5062233;28;20176;-93
2022/08/28 00:47:49;;;;;;;2.73;1.90;;;23.80;65.30;;;;;;5069190;28;20396;-93
2022/08/28 00:53:20;;;;;;;3.93;2.07;;;23.80;65.10;;;;;;5064429;28;20177;-94
2022/08/28 00:55:49;;;;;;;5.73;2.10;;;23.80;65.50;;;;;;5048160;28;20207;-93
2022/08/28 00:58:16;;;;;;;3.87;2.17;;;23.80;65.30;;;;;;5026812;28;20529;-93
2022/08/28 01:00:42;;;;;;;4.10;2.23;;;23.80;65.40;;;;;;5073711;28;20190;-93
2022/08/28 01:03:10;;;;;;;6.57;2.13;;;23.70;65.30;;;;;;5080420;28;20251;-93
2022/08/28 01:05:38;;;;;;;4.30;2.53;;;23.70;65.10;;;;;;5052352;28;20206;-93
2022/08/28 01:08:04;;;;;;;5.00;2.53;;;23.70;65.40;;;;;;5072903;28;20298;-92
2022/08/28 01:10:31;;;;;;;5.63;2.60;;;23.70;65.30;;;;;;5082307;28;20576;-92
2022/08/28 01:12:58;;;;;;;3.80;2.10;;;23.60;65.20;;;;;;5077760;28;20182;-92
2022/08/28 01:15:32;;;;;;;3.67;2.00;;;23.60;65.80;;;;;;5040268;28;20306;-92
2022/08/28 01:18:07;;;;;;;5.10;2.27;;;23.70;65.80;;;;;;5055019;28;20190;-92
2022/08/28 01:21:22;;;;;;;3.87;2.20;;;23.70;65.70;;;;;;5054212;28;20206;-92
2022/08/28 01:24:08;;;;;;;4.57;2.43;;;23.70;65.70;;;;;;5034815;28;20174;-93
2022/08/28 01:26:34;;;;;;;4.57;2.33;;;23.60;65.60;;;;;;5073691;28;20177;-93
2022/08/28 01:29:01;;;;;;;2.87;2.30;;;23.60;65.40;;;;;;5081942;28;20187;-92
2022/08/28 01:31:28;;;;;;;6.93;2.60;;;23.60;65.50;;;;;;5050619;28;20187;-92
2022/08/28 01:33:54;;;;;;;3.73;2.00;;;23.60;65.10;;;;;;5080312;28;20183;-92
2022/08/28 01:36:21;;;;;;;5.83;2.60;;;23.50;65.70;;;;;;5029577;28;20215;-92
2022/08/28 01:39:12;;;;;;;5.13;2.90;;;23.50;65.60;;;;;;5060645;28;20244;-92
2022/08/28 01:41:41;;;;;;;5.80;2.73;;;23.50;66.20;;;;;;5036810;28;20191;-92
2022/08/28 01:44:07;;;;;;;4.77;2.30;;;23.40;66.30;;;;;;5082111;28;20164;-93
2022/08/28 01:46:33;;;;;;;6.13;3.07;;;23.40;66.20;;;;;;5052167;28;20178;-93
2022/08/28 01:49:44;;;;;;;5.93;2.73;;;23.40;66.20;;;;;;5080797;28;20202;-93
2022/08/28 01:52:11;;;;;;;4.27;2.70;;;23.40;66.70;;;;;;5056088;28;20473;-93
2022/08/28 01:54:37;;;;;;;3.17;2.30;;;23.40;66.80;;;;;;5093063;28;20434;-93
2022/08/28 01:57:03;;;;;;;4.27;2.20;;;23.40;67.00;;;;;;5091244;28;20544;-93
2022/08/28 01:59:28;;;;;;;4.80;2.33;;;23.40;67.10;;;;;;5084222;28;20175;-93
2022/08/28 02:02:16;;;;;;;7.13;2.50;;;23.40;67.00;;;;;;5083232;28;20237;-93
2022/08/28 02:04:57;;;;;;;4.43;2.33;;;23.40;67.10;;;;;;5075700;28;20230;-93
2022/08/28 02:07:23;;;;;;;5.03;2.50;;;23.40;67.50;;;;;;5077998;28;20263;-93
2022/08/28 02:09:51;;;;;;;4.60;2.60;;;23.40;67.40;;;;;;5075094;28;20274;-93
2022/08/28 02:12:17;;;;;;;4.57;3.03;;;23.40;67.20;;;;;;5039023;28;20775;-93
2022/08/28 02:15:25;;;;;;;4.10;2.80;;;23.40;67.50;;;;;;5073971;28;20418;-92
2022/08/28 02:17:52;;;;;;;4.00;2.60;;;23.40;67.20;;;;;;5001052;28;20195;-92
2022/08/28 02:20:20;;;;;;;6.60;2.80;;;23.40;67.10;;;;;;4971285;28;20261;-92
2022/08/28 02:26:09;;;;;;;5.30;2.87;;;23.30;66.70;;;;;;5049514;28;20199;-92
2022/08/28 02:28:36;;;;;;;5.13;3.00;;;23.30;66.60;;;;;;5042655;28;20291;-92
2022/08/28 02:31:08;;;;;;;5.87;2.87;;;23.30;66.40;;;;;;5073828;28;20217;-92
2022/08/28 02:33:39;;;;;;;7.00;3.35;;;23.30;66.30;;;;;;5041734;28;20403;-92
2022/08/28 02:36:11;;;;;;;5.23;2.93;;;23.30;66.20;;;;;;5079349;28;20302;-92
2022/08/28 02:38:37;;;;;;;8.53;3.50;;;23.30;66.40;;;;;;5067186;28;20271;-92
2022/08/28 02:41:05;;;;;;;5.33;3.30;;;23.30;66.30;;;;;;5072856;28;20518;-91
2022/08/28 02:43:40;;;;;;;6.00;2.80;;;23.30;66.20;;;;;;5055935;28;20262;-92
2022/08/28 02:46:06;;;;;;;5.73;3.07;;;23.20;66.00;;;;;;5073008;28;20170;-92
2022/08/28 02:48:36;;;;;;;4.80;3.07;;;23.20;66.10;;;;;;4981598;28;20172;-92
2022/08/28 02:51:05;;;;;;;5.17;3.30;;;23.20;66.20;;;;;;5071621;28;20237;-92
2022/08/28 02:57:30;;;;;;;4.83;3.33;;;23.20;66.50;;;;;;5060694;28;20202;-92
2022/08/28 02:59:58;;;;;;;6.40;3.07;;;23.10;66.40;;;;;;5075915;28;20171;-92
2022/08/28 03:03:08;;;;;;;5.90;3.40;;;23.10;66.50;;;;;;5083507;28;20268;-92
2022/08/28 03:05:36;;;;;;;5.57;2.83;;;23.10;66.70;;;;;;5068941;28;20185;-92
2022/08/28 03:08:02;;;;;;;5.30;3.10;;;23.00;66.80;;;;;;5084141;28;20192;-92
2022/08/28 03:10:28;;;;;;;6.10;3.20;;;23.00;66.80;;;;;;5048554;28;20274;-92
2022/08/28 03:16:40;;;;;;;5.97;3.23;;;23.00;66.50;;;;;;5059463;28;20268;-92
2022/08/28 03:19:13;;;;;;;7.77;3.57;;;23.10;66.00;;;;;;5086838;28;20467;-92
2022/08/28 03:25:00;;;;;;;6.47;3.60;;;23.10;65.80;;;;;;5065240;28;20376;-92
2022/08/28 03:27:30;;;;;;;5.63;3.40;;;23.00;65.80;;;;;;5078645;28;20202;-91
2022/08/28 03:33:18;;;;;;;6.30;3.17;;;23.00;65.90;;;;;;5063218;28;20191;-92
2022/08/28 03:35:44;;;;;;;8.83;3.80;;;22.90;65.80;;;;;;5070988;28;20205;-92
2022/08/28 03:38:11;;;;;;;5.67;3.40;;;22.90;65.70;;;;;;5069240;28;20223;-92
2022/08/28 03:40:42;;;;;;;6.57;3.50;;;22.80;66.40;;;;;;5080212;28;20178;-92
2022/08/28 03:43:12;;;;;;;7.87;3.70;;;22.70;66.80;;;;;;5082566;28;20271;-92
2022/08/28 03:46:02;;;;;;;8.20;4.00;;;22.70;67.10;;;;;;5015934;28;20178;-92
2022/08/28 03:48:31;;;;;;;7.73;3.83;;;22.60;66.90;;;;;;5067555;28;20188;-91
2022/08/28 03:50:59;;;;;;;5.13;3.33;;;22.70;67.20;;;;;;5047561;28;20205;-91
2022/08/28 03:53:28;;;;;;;4.70;3.33;;;22.70;66.90;;;;;;5066775;28;20187;-92
2022/08/28 03:55:57;;;;;;;5.60;3.10;;;22.70;66.60;;;;;;5087372;28;20244;-92
2022/08/28 03:58:45;;;;;;;7.40;3.40;;;22.70;66.60;;;;;;5078921;28;20489;-94
2022/08/28 04:01:10;;;;;;;8.10;3.53;;;22.70;66.30;;;;;;5076682;28;20178;-93
2022/08/28 04:03:36;;;;;;;5.47;3.17;;;22.70;66.20;;;;;;5070537;28;20174;-93
2022/08/28 04:06:17;;;;;;;6.33;4.00;;;22.70;66.30;;;;;;5077730;28;20186;-94
2022/08/28 04:08:42;;;;;;;8.37;3.70;;;22.70;66.00;;;;;;5085118;28;20199;-94
2022/08/28 04:11:12;;;;;;;6.13;3.37;;;22.70;65.80;;;;;;5086721;28;20366;-93
2022/08/28 04:13:48;;;;;;;6.77;3.60;;;22.70;65.60;;;;;;5082449;28;20282;-93
2022/08/28 04:16:17;;;;;;;6.37;3.50;;;22.70;65.30;;;;;;5060420;28;20443;-94
2022/08/28 04:18:45;;;;;;;5.20;3.30;;;22.80;65.10;;;;;;5073838;28;20203;-93
2022/08/28 04:22:01;;;;;;;4.50;3.37;;;22.80;65.00;;;;;;5043208;28;20293;-93
2022/08/28 04:25:08;;;;;;;7.47;3.70;;;22.80;64.90;;;;;;5065019;28;20342;-93
2022/08/28 04:27:37;;;;;;;6.07;3.43;;;22.80;64.70;;;;;;5070941;28;20183;-93
2022/08/28 04:30:06;;;;;;;5.97;3.20;;;22.70;64.50;;;;;;5081420;28;20199;-93
2022/08/28 04:32:34;;;;;;;6.03;3.43;;;22.70;64.60;;;;;;5069806;28;20186;-93
2022/08/28 04:35:00;;;;;;;7.10;3.63;;;22.70;64.50;;;;;;5090322;28;20355;-93
2022/08/28 04:37:31;;;;;;;7.53;3.30;;;22.70;64.20;;;;;;5082285;28;20207;-93
2022/08/28 04:39:58;;;;;;;5.47;3.40;;;22.70;64.30;;;;;;5076731;28;20231;-93
2022/08/28 04:42:26;;;;;;;6.90;3.80;;;22.70;64.70;;;;;;5058188;28;20510;-93
2022/08/28 04:45:23;;;;;;;10.53;3.60;;;22.70;64.70;;;;;;5057097;28;20449;-92
2022/08/28 04:47:50;;;;;;;5.50;3.37;;;22.60;64.90;;;;;;5053590;28;20181;-93
2022/08/28 04:50:18;;;;;;;5.07;3.27;;;22.70;64.60;;;;;;5082720;28;20248;-93
2022/08/28 04:52:44;;;;;;;5.90;3.10;;;22.60;64.60;;;;;;5067218;28;20338;-92
2022/08/28 04:55:42;;;;;;;6.77;3.63;;;22.60;64.20;;;;;;5073298;28;20312;-93
2022/08/28 04:58:19;;;;;;;6.20;3.50;;;22.70;64.30;;;;;;5071803;28;20182;-92
2022/08/28 05:00:57;;;;;;;5.63;3.43;;;22.70;64.10;;;;;;5074406;28;20177;-93
2022/08/28 05:03:23;;;;;;;6.13;3.50;;;22.60;64.10;;;;;;5080456;28;20454;-93
2022/08/28 05:06:44;;;;;;;6.13;3.13;;;22.70;64.20;;;;;;5086280;28;20248;-93
2022/08/28 05:09:19;;;;;;;8.00;3.27;;;22.70;64.40;;;;;;5061159;28;20202;-93
2022/08/28 05:11:54;;;;;;;7.60;3.30;;;22.60;64.70;;;;;;5082815;28;20193;-93
2022/08/28 05:14:26;;;;;;;6.83;3.43;;;22.60;64.60;;;;;;5076296;28;20400;-93
2022/08/28 05:16:59;;;;;;;5.40;3.20;;;22.60;64.90;;;;;;5055742;28;20236;-93
2022/08/28 05:19:35;;;;;;;7.13;3.57;;;22.60;65.10;;;;;;5080972;28;20174;-93
2022/08/28 05:25:43;;;;;;;6.07;3.03;;;22.50;65.20;;;;;;5068262;28;20182;-93
2022/08/28 05:28:50;;;;;;;7.37;3.33;;;22.50;65.10;;;;;;5003744;28;20190;-93
2022/08/28 05:31:23;;;;;;;5.13;3.50;;;22.50;65.20;;;;;;5038290;28;20172;-93
2022/08/28 05:34:02;;;;;;;4.67;3.23;;;22.50;65.40;;;;;;5075649;28;20173;-93
2022/08/28 05:36:31;;;;;;;6.23;3.17;;;22.50;65.30;;;;;;5075892;28;20408;-93
2022/08/28 05:38:57;;;;;;;4.87;2.77;;;22.50;65.40;;;;;;5040381;28;20174;-93
2022/08/28 05:41:27;;;;;;;6.80;3.07;;;22.50;65.80;;;;;;5071535;28;20228;-93
2022/08/28 05:43:55;;;;;;;6.83;3.43;;;22.50;65.80;;;;;;5080122;28;20612;-93
2022/08/28 05:50:19;;;;;;;6.80;3.10;;;22.40;65.70;;;;;;5011630;28;20252;-93
2022/08/28 05:56:35;;;;;;;5.43;3.00;;;22.50;65.90;;;;;;5055347;28;20245;-94
2022/08/28 05:59:02;;;;;;;5.10;2.73;;;22.50;66.00;;;;;;5044917;28;20166;-93
2022/08/28 06:04:52;;;;;;;6.37;3.00;;;22.50;66.00;;;;;;5069409;28;20172;-93
2022/08/28 06:07:18;;;;;;;7.63;3.03;;;22.50;66.00;;;;;;5078062;28;20173;-93
2022/08/28 06:09:44;;;;;;;6.43;3.53;;;22.40;66.30;;;;;;5077881;28;20185;-91
2022/08/28 06:15:02;;;;;;;5.97;3.50;;;22.40;66.50;;;;;;5062030;28;20670;-92
2022/08/28 06:21:24;;;;;;;7.57;3.10;;;22.50;66.20;;;;;;5068567;28;20330;-92
2022/08/28 06:23:53;;;;;;;5.20;3.00;;;22.60;65.80;;;;;;5078109;28;20293;-92
2022/08/28 06:26:19;;;;;;;6.27;3.13;;;22.70;64.60;;;;;;5078354;28;20273;-92
2022/08/28 06:28:45;;;;;;;4.23;2.83;;;22.70;65.00;;;;;;5076440;28;20464;-92
2022/08/28 06:35:14;;;;;;;3.70;2.50;;;22.90;63.60;;;;;;5067537;28;20226;-92
2022/08/28 06:37:50;;;;;;;5.83;2.80;;;23.00;62.80;;;;;;5081445;28;20231;-93
2022/08/28 06:40:28;;;;;;;3.97;2.73;;;23.10;62.60;;;;;;5064148;28;20175;-92
2022/08/28 06:42:53;;;;;;;3.97;2.67;;;23.10;62.00;;;;;;5082275;28;20241;-94
2022/08/28 06:45:19;;;;;;;5.30;2.57;;;23.10;62.10;;;;;;5080540;28;20184;-93
2022/08/28 06:48:40;;;;;;;3.60;2.53;;;23.20;62.00;;;;;;5076083;28;20186;-94
2022/08/28 06:51:08;;;;;;;5.77;2.93;;;23.20;61.00;;;;;;5085072;28;20225;-94
2022/08/28 06:57:36;;;;;;;5.40;2.67;;;23.80;60.30;;;;;;5071000;28;20558;-93
2022/08/28 07:00:06;;;;;;;6.77;3.00;;;24.00;58.30;;;;;;5036226;28;20174;-93
2022/08/28 07:03:16;;;;;;;5.03;2.70;;;25.00;56.50;;;;;;5082400;28;20210;-93
2022/08/28 07:05:45;;;;;;;5.00;2.93;;;24.90;56.20;;;;;;5035451;28;20429;-94
2022/08/28 07:11:45;;;;;;;5.33;2.90;;;25.40;55.20;;;;;;5069675;28;20198;-94
2022/08/28 07:14:11;;;;;;;5.63;2.63;;;26.50;53.20;;;;;;5084127;28;20209;-93
2022/08/28 07:16:52;;;;;;;5.63;2.90;;;27.20;52.00;;;;;;5067550;28;20208;-92
2022/08/28 07:19:24;;;;;;;4.27;2.47;;;26.80;51.70;;;;;;5081832;28;20172;-92
2022/08/28 07:21:57;;;;;;;4.50;2.80;;;26.50;51.90;;;;;;5081765;28;20427;-92
2022/08/28 07:28:05;;;;;;;4.67;2.50;;;26.10;52.40;;;;;;5084957;28;20173;-92
2022/08/28 07:31:19;;;;;;;4.23;2.33;;;27.00;52.10;;;;;;5071630;28;20175;-92
2022/08/28 07:37:25;;;;;;;4.68;2.95;;;29.50;48.70;;;;;;5026626;28;20465;-92
2022/08/28 07:39:51;;;;;;;4.22;2.55;;;30.10;47.70;;;;;;5011476;28;20180;-92
2022/08/28 07:45:03;;;;;;;4.47;2.53;;;29.70;47.20;;;;;;5085776;28;20311;-93
2022/08/28 07:47:30;;;;;;;4.85;2.40;;;29.30;47.80;;;;;;5066660;28;20276;-92
2022/08/28 07:50:17;;;;;;;3.78;2.33;;;29.60;47.40;;;;;;5072917;28;20189;-92
2022/08/28 07:52:49;;;;;;;3.65;2.50;;;29.10;47.80;;;;;;5069592;28;20171;-93
2022/08/28 07:55:15;;;;;;;3.67;2.35;;;28.70;48.40;;;;;;5070314;28;20214;-92
2022/08/28 07:57:42;;;;;;;3.75;2.42;;;28.80;48.30;;;;;;5069676;28;20532;-92
2022/08/28 08:00:38;;;;;;;5.22;2.67;;;29.80;47.80;;;;;;5069426;28;20182;-92
2022/08/28 08:03:22;;;;;;;3.70;2.55;;;30.80;46.60;;;;;;5051238;28;20464;-91
2022/08/28 08:06:38;;;;;;;3.42;2.58;;;31.50;45.70;;;;;;5066953;28;20229;-90
2022/08/28 08:09:08;;;;;;;3.92;2.50;;;30.30;45.90;;;;;;5066874;28;20171;-90
2022/08/28 08:11:35;;;;;;;2.83;2.13;;;29.40;47.00;;;;;;5052975;28;20191;-91
2022/08/28 08:14:19;;;;;;;4.32;2.28;;;28.50;47.80;;;;;;5079060;28;20175;-91
2022/08/28 08:16:48;;;;;;;3.58;2.30;;;28.60;48.10;;;;;;5081120;28;20199;-91
2022/08/28 08:19:15;;;;;;;3.70;2.30;;;29.00;48.20;;;;;;5072730;28;20218;-91
2022/08/28 08:22:15;;;;;;;6.70;2.50;;;30.40;47.10;;;;;;5039532;28;20171;-91
2022/08/28 08:24:44;;;;;;;4.25;2.38;;;31.50;45.90;;;;;;5085238;28;20163;-90
2022/08/28 08:30:31;;;;;;;5.68;2.40;;;32.10;45.00;;;;;;5071868;28;20171;-91
2022/08/28 08:32:58;;;;;;;5.05;2.33;;;32.70;44.50;;;;;;5087152;28;20163;-90
2022/08/28 08:39:21;;;;;;;4.53;2.55;;;33.30;43.60;;;;;;4986665;28;20176;-92
2022/08/28 08:48:37;;;;;;;6.57;2.40;;;33.80;42.90;;;;;;5068360;28;20480;-92
2022/08/28 08:51:27;;;;;;;6.00;2.55;;;33.20;43.30;;;;;;5080407;28;20353;-92
2022/08/28 08:54:21;;;;;;;3.85;2.50;;;32.90;43.10;;;;;;5085283;28;20516;-92
2022/08/28 08:57:24;;;;;;;4.85;2.80;;;33.40;43.10;;;;;;5087294;28;20439;-92
2022/08/28 09:04:02;;;;;;;3.72;2.60;;;34.30;42.40;;;;;;5068788;28;20272;-92
2022/08/28 09:17:17;;;;;;;6.97;3.03;;;34.90;41.40;;;;;;5062410;28;20231;-91
2022/08/28 09:19:42;;;;;;;4.70;2.83;;;34.70;40.70;;;;;;5049157;28;20245;-92
2022/08/28 09:22:27;;;;;;;4.47;2.97;;;34.80;40.90;;;;;;5077704;28;20187;-91
2022/08/28 09:25:30;;;;;;;4.72;2.85;;;34.90;40.90;;;;;;5075713;28;20301;-91
2022/08/28 09:28:08;;;;;;;6.85;2.65;;;34.90;41.00;;;;;;5044871;28;20348;-92
2022/08/28 09:34:52;;;;;;;5.45;2.90;;;35.10;40.90;;;;;;5068035;28;20255;-92
2022/08/28 09:37:25;;;;;;;4.90;2.80;;;34.30;41.00;;;;;;5065457;28;20578;-92
2022/08/28 09:47:19;;;;;;;5.32;2.60;;;33.50;42.20;;;;;;5063658;28;20517;-92
2022/08/28 09:49:46;;;;;;;5.15;2.50;;;34.20;41.70;;;;;;5064691;28;20186;-91
2022/08/28 09:59:06;;;;;;;3.63;2.55;;;33.90;41.50;;;;;;5064827;28;20186;-92
2022/08/28 10:02:18;;;;;;;4.30;2.60;;;33.00;41.90;;;;;;5049556;28;20167;-91
2022/08/28 10:09:01;;;;;;;4.50;2.53;;;31.50;43.10;;;;;;5063575;28;20190;-91
2022/08/28 10:14:58;;;;;;;3.85;2.40;;;30.20;44.50;;;;;;4989091;28;20641;-91
2022/08/28 10:17:42;;;;;;;3.83;2.10;;;29.90;44.90;;;;;;5046733;28;20232;-91
2022/08/28 10:27:08;;;;;;;4.55;2.65;;;29.10;45.90;;;;;;4985085;28;20189;-91
2022/08/28 10:29:58;;;;;;;3.40;2.50;;;28.90;46.00;;;;;;5005512;28;20178;-91
2022/08/28 10:32:33;;;;;;;4.28;2.55;;;28.80;45.90;;;;;;5050669;28;20202;-92
2022/08/28 10:38:38;;;;;;;4.18;2.38;;;28.60;46.40;;;;;;5065609;28;20175;-91
2022/08/28 10:48:17;;;;;;;6.43;2.55;;;28.30;46.70;;;;;;5068286;28;20283;-92
2022/08/28 10:51:04;;;;;;;5.53;2.50;;;28.20;46.90;;;;;;5052176;28;20208;-92
2022/08/28 10:53:35;;;;;;;6.03;2.30;;;28.10;47.10;;;;;;5053889;28;20540;-92
2022/08/28 10:56:07;;;;;;;4.82;2.33;;;28.10;47.20;;;;;;5046401;28;20305;-91
2022/08/28 11:05:51;;;;;;;2.97;2.00;;;27.80;47.50;;;;;;5014228;28;20369;-91
2022/08/28 11:08:34;;;;;;;3.63;2.10;;;27.70;47.60;;;;;;5051192;28;20319;-91
2022/08/28 11:11:38;;;;;;;3.40;2.13;;;27.60;47.80;;;;;;5049578;28;20207;-92
2022/08/28 11:14:38;;;;;;;4.05;2.30;;;27.50;48.00;;;;;;5064966;28;20573;-91
2022/08/28 11:21:31;;;;;;;3.20;2.00;;;27.30;48.20;;;;;;5067959;28;20584;-92
2022/08/28 11:24:08;;;;;;;3.03;2.03;;;27.30;48.30;;;;;;5081672;28;20194;-89
2022/08/28 11:30:01;;;;;;;4.87;2.23;;;27.20;48.50;;;;;;5060213;28;20355;-92
2022/08/28 11:32:48;;;;;;;4.77;2.30;;;27.20;48.60;;;;;;5054468;28;20167;-90
2022/08/28 11:35:29;;;;;;;4.43;2.40;;;27.10;48.40;;;;;;5055204;28;20243;-92
2022/08/28 11:48:01;;;;;;;2.27;2.03;;;26.90;48.70;;;;;;5065687;28;20249;-90
2022/08/28 11:51:12;;;;;;;4.63;2.00;;;26.90;48.80;;;;;;5080987;28;20179;-90
2022/08/28 11:54:17;;;;;;;3.87;2.30;;;26.90;48.90;;;;;;5070716;28;20229;-92
2022/08/28 11:57:30;;;;;;;4.07;2.00;;;26.90;48.00;;;;;;5050324;28;20199;-91
2022/08/28 12:06:49;;;;;;;3.97;2.40;;;26.80;49.10;;;;;;5064211;28;20237;-91
2022/08/28 12:09:36;;;;;;;3.43;2.13;;;26.70;49.10;;;;;;5068728;28;20179;-91
2022/08/28 12:12:49;;;;;;;4.03;1.97;;;26.70;49.20;;;;;;5086316;28;20664;-90
2022/08/28 12:15:28;;;;;;;6.43;2.27;;;26.70;49.40;;;;;;5069163;28;20231;-91
2022/08/28 12:18:10;;;;;;;4.93;2.20;;;26.70;49.40;;;;;;5022204;28;20578;-91
2022/08/28 12:20:55;;;;;;;2.83;2.03;;;26.60;49.50;;;;;;5010918;28;20380;-92
2022/08/28 12:23:43;;;;;;;4.90;2.13;;;26.60;49.60;;;;;;5007031;28;20218;-91
2022/08/28 12:26:53;;;;;;;4.37;2.00;;;26.60;49.60;;;;;;5010330;28;20250;-91
2022/08/28 12:33:44;;;;;;;3.30;2.03;;;26.60;49.70;;;;;;5017947;28;20339;-91
2022/08/28 12:40:09;;;;;;;4.87;2.10;;;26.40;49.40;;;;;;5023796;28;20191;-91
2022/08/28 12:42:39;;;;;;;3.23;2.10;;;26.40;49.80;;;;;;5004615;28;20251;-91
2022/08/28 12:52:05;;;;;;;4.00;2.03;;;26.40;48.90;;;;;;5066228;28;20397;-91
2022/08/28 12:54:30;;;;;;;3.73;1.97;;;26.30;48.00;;;;;;5082498;28;20193;-91
2022/08/28 12:56:56;;;;;;;4.57;2.30;;;26.30;49.60;;;;;;5081298;28;20684;-91
2022/08/28 13:06:26;;;;;;;3.50;2.03;;;26.20;50.00;;;;;;5067094;28;20179;-91
2022/08/28 13:09:16;;;;;;;5.77;2.40;;;26.20;50.00;;;;;;5048363;28;20171;-91
2022/08/28 13:11:48;;;;;;;4.50;1.93;;;26.20;48.90;;;;;;5068946;28;20786;-90
2022/08/28 13:17:50;;;;;;;4.33;1.90;;;26.20;49.80;;;;;;5065747;28;20190;-90
2022/08/28 13:30:15;;;;;;;3.43;1.97;;;26.10;49.00;;;;;;4991476;28;20193;-91
2022/08/28 13:32:58;;;;;;;1.97;1.60;;;26.10;49.90;;;;;;5062268;28;20281;-91
2022/08/28 13:46:24;;;;;;;3.03;2.10;;;26.10;50.60;;;;;;4980043;28;20186;-91
2022/08/28 13:48:49;;;;;;;3.53;1.90;;;26.00;48.20;;;;;;5003016;28;20174;-91
2022/08/28 14:04:53;;;;;;;2.47;1.60;;;25.90;50.70;;;;;;5004579;28;20220;-91
2022/08/28 14:07:54;;;;;;;4.00;1.90;;;25.90;51.00;;;;;;5006355;28;20181;-91
2022/08/28 14:11:11;;;;;;;3.10;1.70;;;25.90;50.80;;;;;;5004017;28;20181;-91
2022/08/28 14:13:37;;;;;;;3.70;1.80;;;25.90;50.40;;;;;;4998102;28;20169;-91
2022/08/28 14:16:28;;;;;;;5.00;2.03;;;26.00;51.20;;;;;;4987872;28;20283;-91
2022/08/28 14:22:16;;;;;;;3.43;2.00;;;25.90;50.80;;;;;;5001549;28;20172;-91
2022/08/28 14:24:42;;;;;;;4.10;1.77;;;25.90;50.00;;;;;;4997344;28;20173;-91
2022/08/28 14:27:38;;;;;;;2.63;1.90;;;25.80;49.60;;;;;;5001281;28;20180;-91
2022/08/28 14:34:12;;;;;;;3.13;1.70;;;25.80;50.80;;;;;;4999717;28;20724;-90
2022/08/28 14:37:00;;;;;;;4.30;1.80;;;25.80;50.30;;;;;;5061583;28;20204;-89
2022/08/28 14:40:19;;;;;;;4.63;2.27;;;25.80;50.00;;;;;;5045628;28;20266;-90
2022/08/28 14:42:54;;;;;;;3.33;1.80;;;25.70;48.20;;;;;;5047251;28;20171;-89
2022/08/28 14:45:26;;;;;;;2.77;1.80;;;25.80;50.50;;;;;;5075765;28;20281;-90
2022/08/28 14:48:26;;;;;;;5.00;2.00;;;25.80;50.00;;;;;;5068843;28;20180;-90
2022/08/28 14:51:31;;;;;;;3.63;1.80;;;25.80;48.90;;;;;;5066301;28;20180;-90
2022/08/28 14:53:58;;;;;;;3.30;1.90;;;25.80;50.10;;;;;;5041783;28;20187;-90
2022/08/28 14:56:27;;;;;;;3.27;1.90;;;25.80;50.90;;;;;;5042065;28;20215;-90
2022/08/28 14:58:54;;;;;;;2.90;1.90;;;25.80;51.00;;;;;;5033814;28;20242;-90
2022/08/28 15:01:22;;;;;;;1.87;1.40;;;25.80;51.10;;;;;;5041119;28;20485;-91
2022/08/28 15:04:00;;;;;;;2.13;1.70;;;25.80;51.20;;;;;;5065003;28;20171;-90
2022/08/28 15:06:35;;;;;;;2.17;1.60;;;25.80;51.10;;;;;;5079854;28;20471;-90
2022/08/28 15:09:01;;;;;;;5.97;1.70;;;25.80;51.20;;;;;;5048406;28;20183;-90
2022/08/28 15:14:49;;;;;;;2.47;1.70;;;25.80;51.00;;;;;;5060275;28;20198;-89
2022/08/28 15:17:15;;;;;;;1.97;1.70;;;25.80;51.20;;;;;;5077926;28;20617;-90
2022/08/28 15:19:41;;;;;;;1.90;1.50;;;25.80;51.10;;;;;;5080393;28;20270;-90
2022/08/28 15:22:06;;;;;;;2.37;1.63;;;25.90;50.60;;;;;;5082149;28;20538;-90
2022/08/28 15:31:32;;;;;;;2.50;1.67;;;25.80;50.70;;;;;;4982749;28;20257;-91
2022/08/28 15:34:06;;;;;;;2.07;1.70;;;25.80;51.30;;;;;;4969529;28;20292;-90
2022/08/28 15:36:33;;;;;;;3.50;1.83;;;25.80;51.50;;;;;;4984119;28;20316;-90
2022/08/28 15:45:43;;;;;;;3.13;1.60;;;25.70;51.20;;;;;;5037171;28;20438;-90
2022/08/28 15:48:09;;;;;;;1.90;1.50;;;25.80;51.50;;;;;;5067701;28;20495;-90
2022/08/28 15:50:36;;;;;;;2.63;1.67;;;25.80;51.60;;;;;;5084026;28;20238;-90
2022/08/28 15:56:23;;;;;;;2.47;1.67;;;25.70;48.90;;;;;;5065033;28;20487;-90
2022/08/28 15:58:50;;;;;;;3.27;1.67;;;25.70;50.70;;;;;;5084136;28;20203;-91
2022/08/28 16:01:17;;;;;;;3.47;1.93;;;25.70;49.80;;;;;;5051842;28;20274;-90
2022/08/28 16:10:28;;;;;;;1.90;1.50;;;25.70;50.40;;;;;;5071462;28;20329;-91
2022/08/28 16:12:54;;;;;;;3.40;2.17;;;25.70;51.00;;;;;;5055085;28;20270;-92
2022/08/28 16:15:20;;;;;;;3.00;1.93;;;25.70;51.40;;;;;;5046348;28;20204;-92
2022/08/28 16:21:51;;;;;;;2.97;1.90;;;25.70;51.30;;;;;;5066378;28;20234;-93
2022/08/28 16:24:45;;;;;;;3.00;1.80;;;25.60;49.10;;;;;;5049392;28;20203;-91
2022/08/28 16:27:11;;;;;;;2.40;1.87;;;25.60;50.80;;;;;;5050130;28;20291;-92
2022/08/28 16:29:37;;;;;;;2.10;1.80;;;25.60;51.20;;;;;;5051297;28;20241;-91
2022/08/28 16:32:04;;;;;;;3.17;1.90;;;25.60;50.90;;;;;;5046994;28;20179;-91
2022/08/28 16:34:31;;;;;;;3.57;1.73;;;25.60;51.30;;;;;;5043092;28;20236;-91
2022/08/28 16:43:42;;;;;;;3.33;1.87;;;25.60;51.60;;;;;;5068223;28;20533;-89
2022/08/28 16:46:10;;;;;;;3.90;2.00;;;25.60;51.50;;;;;;5048735;28;20538;-89
2022/08/28 16:55:21;;;;;;;4.37;1.90;;;25.50;51.50;;;;;;4980958;28;20282;-89
2022/08/28 16:57:59;;;;;;;3.50;2.13;;;25.60;51.70;;;;;;5038640;28;20180;-89
2022/08/28 17:03:48;;;;;;;4.37;1.93;;;25.50;51.70;;;;;;5066116;28;20321;-89
2022/08/28 17:06:27;;;;;;;3.83;1.97;;;25.50;52.10;;;;;;5035866;28;20249;-90
2022/08/28 17:08:54;;;;;;;3.43;2.03;;;25.50;51.90;;;;;;5050811;28;20202;-89
2022/08/28 17:11:20;;;;;;;4.87;1.83;;;25.50;51.90;;;;;;5047484;28;20654;-90
2022/08/28 17:17:27;;;;;;;6.30;2.10;;;25.50;51.70;;;;;;5069331;28;20434;-91
2022/08/28 17:23:16;;;;;;;3.73;2.30;;;25.40;51.70;;;;;;5063552;28;20214;-91
2022/08/28 17:25:43;;;;;;;3.67;1.80;;;25.40;51.70;;;;;;5048286;28;20512;-91
2022/08/28 17:34:35;;;;;;;3.27;1.80;;;25.30;50.70;;;;;;5068610;28;20229;-91
2022/08/28 17:37:01;;;;;;;4.13;2.30;;;25.30;51.50;;;;;;5045605;28;20246;-91
2022/08/28 17:39:27;;;;;;;4.77;1.93;;;25.30;51.30;;;;;;5048096;28;20509;-91
2022/08/28 17:41:53;;;;;;;3.07;1.80;;;25.30;50.80;;;;;;5047075;28;20611;-91
2022/08/28 17:44:19;;;;;;;3.67;1.90;;;25.20;51.20;;;;;;5047035;28;20195;-92
2022/08/28 17:46:44;;;;;;;2.97;2.00;;;25.20;51.40;;;;;;5050987;28;20519;-92
2022/08/28 17:49:10;;;;;;;4.07;2.10;;;25.20;51.40;;;;;;5051404;28;20251;-91
2022/08/28 17:58:20;;;;;;;3.50;2.00;;;25.10;51.10;;;;;;5066486;28;20236;-90
2022/08/28 18:00:46;;;;;;;2.30;1.80;;;25.10;51.30;;;;;;5047941;28;20167;-90
2022/08/28 18:03:13;;;;;;;2.70;1.80;;;25.10;51.60;;;;;;5050691;28;20490;-90
2022/08/28 18:05:42;;;;;;;3.10;2.20;;;25.10;51.30;;;;;;5049083;28;20199;-90
2022/08/28 18:08:08;;;;;;;3.03;1.77;;;25.00;50.80;;;;;;5049105;28;20550;-90
2022/08/28 18:10:55;;;;;;;2.27;1.70;;;25.00;50.80;;;;;;5047792;28;20236;-90
2022/08/28 18:13:22;;;;;;;3.10;2.00;;;25.00;50.70;;;;;;5045122;28;20249;-90
2022/08/28 18:15:47;;;;;;;2.80;2.03;;;25.00;50.80;;;;;;5045589;28;20328;-90
2022/08/28 18:21:13;;;;;;;2.87;1.90;;;24.90;51.10;;;;;;5023897;28;20177;-90
2022/08/28 18:23:39;;;;;;;3.90;2.10;;;24.90;50.70;;;;;;5003525;28;20282;-91
2022/08/28 18:26:16;;;;;;;3.93;2.07;;;24.80;50.80;;;;;;5026382;28;20176;-90
2022/08/28 18:28:51;;;;;;;3.83;2.20;;;24.80;51.20;;;;;;5034375;28;20179;-90
2022/08/28 18:31:26;;;;;;;2.10;1.80;;;24.80;51.20;;;;;;5050170;28;20512;-90
2022/08/28 18:33:53;;;;;;;4.40;2.10;;;24.80;51.30;;;;;;5047746;28;20171;-90
2022/08/28 18:36:22;;;;;;;4.43;2.00;;;24.80;51.20;;;;;;5048316;28;20200;-90
2022/08/28 18:45:32;;;;;;;5.17;2.30;;;24.70;51.50;;;;;;5057755;28;20190;-90